CheckWX is a tool to help pilots better visualize weather data.  It is not intended as a substitute for an official pre-flight weather briefing.

12:02:36 UTC

9V9 METAR
Chamberlain Municipal Airport
Chamberlain, South Dakota, USA
Current

28 mins ago

K9V9 251135Z AUTO 00000KT 3SM BR OVC002 M01/M01 A3035 RMK AO2 T10101010
Observed
Mar-25 @ 11:35 UTC
Visibility
3 SM
Flight Rules
LIFR
Conditions
Mist
Cloud Levels
  • Overcast at 200' AGL
Temperature
-1°C / 30°F
Dewpoint
-1°C / 30°F
Humidity
100%
Altimeter
30.35" Hg
Pressure
1027.82 hPa
Previous

48 mins ago

K9V9 251115Z AUTO 00000KT 3SM BR OVC002 M01/M01 A3035 RMK AO2 T10111011
Observed
Mar-25 @ 11:15 UTC
Visibility
3 SM
Flight Rules
LIFR
Conditions
Mist
Cloud Levels
  • Overcast at 200' AGL
Temperature
-1°C / 30°F
Dewpoint
-1°C / 30°F
Humidity
100%
Altimeter
30.35" Hg
Pressure
1027.82 hPa
Previous

1 hour ago

K9V9 251055Z AUTO 00000KT 3SM BR OVC002 M01/M01 A3035 RMK AO2 T10111011
Observed
Mar-25 @ 10:55 UTC
Visibility
3 SM
Flight Rules
LIFR
Conditions
Mist
Cloud Levels
  • Overcast at 200' AGL
Temperature
-1°C / 30°F
Dewpoint
-1°C / 30°F
Humidity
100%
Altimeter
30.35" Hg
Pressure
1027.82 hPa